createdAt,value
2018-09-01T00:01:09.415Z,0.87
2018-09-01T00:03:37.630Z,1.10
2018-09-01T00:06:06.096Z,0.90
2018-09-01T00:08:34.954Z,1.00
2018-09-01T00:11:03.383Z,0.90
2018-09-01T00:13:31.756Z,1.20
2018-09-01T00:16:00.115Z,1.30
2018-09-01T00:18:28.492Z,1.00
2018-09-01T00:20:56.832Z,1.17
2018-09-01T00:23:25.401Z,1.20
2018-09-01T00:25:53.806Z,1.00
2018-09-01T00:28:22.119Z,1.20
2018-09-01T00:30:50.651Z,1.00
2018-09-01T00:33:20.698Z,0.90
2018-09-01T00:38:33.279Z,0.90
2018-09-01T00:41:02.904Z,0.90
2018-09-01T00:43:31.991Z,0.80
2018-09-01T00:46:00.451Z,1.00
2018-09-01T00:48:29.154Z,0.73
2018-09-01T00:51:00.155Z,0.90
2018-09-01T00:53:28.454Z,1.00
2018-09-01T00:58:35.420Z,1.10
2018-09-01T01:01:03.770Z,1.00
2018-09-01T01:03:32.000Z,1.20
2018-09-01T01:06:00.403Z,1.00
2018-09-01T01:08:28.673Z,1.17
2018-09-01T01:10:57.191Z,1.07
2018-09-01T01:13:25.567Z,1.00
2018-09-01T01:15:53.891Z,0.87
2018-09-01T01:21:01.136Z,1.33
2018-09-01T01:23:29.482Z,1.00
2018-09-01T01:28:35.916Z,1.07
2018-09-01T01:31:04.567Z,0.90
2018-09-01T01:33:33.777Z,1.03
2018-09-01T01:36:02.287Z,1.10
2018-09-01T01:38:30.570Z,0.90
2018-09-01T01:40:58.863Z,0.70
2018-09-01T01:43:26.973Z,1.20
2018-09-01T01:45:55.735Z,1.03
2018-09-01T01:48:24.059Z,0.70
2018-09-01T01:50:52.376Z,1.00
2018-09-01T01:53:20.945Z,0.90
2018-09-01T01:55:49.493Z,1.03
2018-09-01T01:58:17.940Z,0.90
2018-09-01T02:00:46.369Z,1.00
2018-09-01T02:03:14.745Z,1.00
2018-09-01T02:05:43.432Z,0.80
2018-09-01T02:08:11.951Z,0.90
2018-09-01T02:10:40.432Z,0.90
2018-09-01T02:13:08.910Z,0.80
2018-09-01T02:18:16.877Z,1.03
2018-09-01T02:20:45.201Z,0.93
2018-09-01T02:23:13.928Z,0.90
2018-09-01T02:25:42.524Z,0.73
2018-09-01T02:28:11.356Z,0.90
2018-09-01T02:30:40.155Z,1.13
2018-09-01T02:33:09.449Z,1.10
2018-09-01T02:35:38.393Z,0.90
2018-09-01T02:38:07.629Z,1.03
2018-09-01T02:40:36.367Z,0.90
2018-09-01T02:43:05.072Z,1.07
2018-09-01T02:45:33.395Z,0.70
2018-09-01T02:48:02.112Z,0.90
2018-09-01T02:50:30.565Z,1.03
2018-09-01T02:53:01.279Z,0.90
2018-09-01T02:55:29.446Z,0.93
2018-09-01T02:57:57.804Z,0.90
2018-09-01T03:00:31.727Z,1.10
2018-09-01T03:03:00.105Z,1.10
2018-09-01T03:05:28.394Z,0.90
2018-09-01T03:07:56.706Z,1.20
2018-09-01T03:10:25.282Z,0.90
2018-09-01T03:12:53.636Z,0.80
2018-09-01T03:15:21.887Z,1.07
2018-09-01T03:17:50.267Z,1.03
2018-09-01T03:20:18.730Z,1.10
2018-09-01T03:22:47.294Z,1.10
2018-09-01T03:25:15.626Z,1.00
2018-09-01T03:27:43.862Z,1.40
2018-09-01T03:30:12.381Z,1.17
2018-09-01T03:32:40.735Z,1.00
2018-09-01T03:35:09.046Z,0.83
2018-09-01T03:37:37.627Z,0.93
2018-09-01T03:40:06.882Z,0.80
2018-09-01T03:42:35.804Z,1.07
2018-09-01T03:45:04.037Z,1.03
2018-09-01T03:47:32.395Z,0.87
2018-09-01T03:50:00.693Z,0.80
2018-09-01T03:52:29.143Z,0.70
2018-09-01T03:54:57.441Z,1.20
2018-09-01T03:57:25.590Z,0.90
2018-09-01T03:59:54.151Z,0.77
2018-09-01T04:02:23.397Z,0.87
2018-09-01T04:04:51.716Z,0.80
2018-09-01T04:07:19.811Z,1.00
2018-09-01T04:09:47.984Z,0.97
2018-09-01T04:12:16.100Z,1.00
2018-09-01T04:14:44.305Z,1.07
2018-09-01T04:17:12.486Z,1.00
2018-09-01T04:19:40.675Z,1.03
2018-09-01T04:22:08.871Z,0.90
2018-09-01T04:24:36.987Z,0.77
2018-09-01T04:27:05.201Z,1.10
2018-09-01T04:29:33.322Z,0.87
2018-09-01T04:32:01.548Z,1.03
2018-09-01T04:34:29.763Z,1.20
2018-09-01T04:36:58.121Z,1.20
2018-09-01T04:39:26.378Z,0.80
2018-09-01T04:41:54.542Z,1.10
2018-09-01T04:44:22.683Z,1.20
2018-09-01T04:46:50.849Z,1.10
2018-09-01T04:49:18.991Z,1.20
2018-09-01T04:51:47.263Z,1.00
2018-09-01T04:54:15.451Z,0.90
2018-09-01T04:56:43.604Z,0.97
2018-09-01T04:59:11.817Z,0.97
2018-09-01T05:01:40.047Z,1.03
2018-09-01T05:04:08.175Z,1.03
2018-09-01T05:06:36.519Z,1.00
2018-09-01T05:09:06.005Z,1.07
2018-09-01T05:11:34.203Z,0.80
2018-09-01T05:14:02.413Z,0.90
2018-09-01T05:16:30.551Z,1.27
2018-09-01T05:18:58.713Z,1.00
2018-09-01T05:21:26.916Z,1.10
2018-09-01T05:23:55.079Z,0.97
2018-09-01T05:26:23.333Z,1.00
2018-09-01T05:28:51.599Z,0.97
2018-09-01T05:31:19.743Z,0.87
2018-09-01T05:33:48.068Z,1.10
2018-09-01T05:36:16.391Z,0.90
2018-09-01T05:38:44.500Z,1.00
2018-09-01T05:41:12.685Z,1.23
2018-09-01T05:43:40.828Z,1.20
2018-09-01T05:46:08.918Z,1.07
2018-09-01T05:48:37.071Z,1.07
2018-09-01T05:51:05.283Z,1.07
2018-09-01T05:53:33.436Z,1.20
2018-09-01T05:56:01.626Z,1.10
2018-09-01T05:58:29.766Z,0.97
2018-09-01T06:00:57.982Z,1.40
2018-09-01T06:03:26.128Z,1.10
2018-09-01T06:10:52.757Z,1.20
2018-09-01T06:13:20.899Z,1.10
2018-09-01T06:15:49.176Z,1.33
2018-09-01T06:18:17.394Z,1.40
2018-09-01T06:20:45.670Z,1.23
2018-09-01T06:23:13.895Z,1.40
2018-09-01T06:25:42.014Z,1.40
2018-09-01T06:28:16.176Z,1.57
2018-09-01T06:30:47.187Z,1.50
2018-09-01T06:33:15.347Z,1.70
2018-09-01T06:35:43.852Z,1.40
2018-09-01T06:38:13.385Z,1.55
2018-09-01T06:40:41.862Z,1.50
2018-09-01T06:43:10.552Z,1.50
2018-09-01T06:45:38.662Z,1.20
2018-09-01T06:48:07.359Z,1.60
2018-09-01T06:50:35.942Z,1.53
2018-09-01T06:53:04.320Z,1.57
2018-09-01T06:55:33.738Z,1.50
2018-09-01T06:58:02.339Z,1.03
2018-09-01T07:03:08.681Z,1.40
2018-09-01T07:05:36.986Z,1.03
2018-09-01T07:08:05.399Z,1.40
2018-09-01T07:10:33.846Z,1.13
2018-09-01T07:13:02.207Z,1.33
2018-09-01T07:15:30.587Z,1.37
2018-09-01T07:17:58.735Z,1.33
2018-09-01T07:20:27.027Z,1.40
2018-09-01T07:22:55.388Z,1.27
2018-09-01T07:25:23.502Z,1.17
2018-09-01T07:27:51.735Z,1.40
2018-09-01T07:30:29.432Z,1.40
2018-09-01T07:32:57.463Z,1.10
2018-09-01T07:35:25.877Z,1.40
2018-09-01T07:37:54.167Z,1.50
2018-09-01T07:40:22.505Z,1.37
2018-09-01T07:42:50.903Z,1.23
2018-09-01T07:45:19.110Z,1.50
2018-09-01T07:47:47.543Z,1.30
2018-09-01T07:50:15.887Z,1.57
2018-09-01T07:52:44.083Z,1.37
2018-09-01T07:55:12.232Z,1.17
2018-09-01T07:57:40.371Z,1.17
2018-09-01T08:00:08.483Z,1.20
2018-09-01T08:02:36.951Z,1.13
2018-09-01T08:05:05.668Z,1.20
2018-09-01T08:07:33.904Z,1.57
2018-09-01T08:10:06.709Z,1.27
2018-09-01T08:12:35.217Z,1.30
2018-09-01T08:15:03.772Z,1.30
2018-09-01T08:17:32.347Z,1.20
2018-09-01T08:20:00.628Z,1.40
2018-09-01T08:22:28.912Z,1.30
2018-09-01T08:24:57.305Z,1.33
2018-09-01T08:27:25.742Z,1.20
2018-09-01T08:29:54.797Z,1.27
2018-09-01T08:32:23.775Z,1.27
2018-09-01T08:34:51.992Z,1.10
2018-09-01T08:37:20.250Z,1.20
2018-09-01T08:42:27.097Z,1.10
2018-09-01T08:44:56.168Z,1.10
2018-09-01T08:50:11.967Z,0.93
2018-09-01T08:52:43.626Z,1.20
2018-09-01T08:55:11.842Z,1.13
2018-09-01T08:57:40.305Z,1.23
2018-09-01T09:00:08.680Z,1.20
2018-09-01T09:02:36.968Z,1.20
2018-09-01T09:05:05.231Z,1.10
2018-09-01T09:07:34.460Z,1.20
2018-09-01T09:10:03.435Z,0.97
2018-09-01T09:12:31.648Z,1.07
2018-09-01T09:15:00.388Z,0.87
2018-09-01T09:17:31.264Z,1.00
2018-09-01T09:19:59.960Z,0.90
2018-09-01T09:22:29.342Z,0.90
2018-09-01T09:24:58.031Z,1.00
2018-09-01T09:27:28.746Z,0.97
2018-09-01T09:29:58.598Z,0.83
2018-09-01T09:32:26.927Z,0.97
2018-09-01T09:34:55.226Z,0.70
2018-09-01T09:37:23.764Z,1.00
2018-09-01T09:39:51.964Z,1.00
2018-09-01T09:42:20.143Z,1.00
2018-09-01T09:44:48.771Z,1.10
2018-09-01T09:47:16.941Z,0.90
2018-09-01T09:49:45.130Z,0.80
2018-09-01T09:52:13.326Z,1.10
2018-09-01T09:54:41.521Z,0.90
2018-09-01T09:57:09.752Z,1.00
2018-09-01T09:59:38.196Z,0.83
2018-09-01T10:02:14.801Z,1.10
2018-09-01T10:04:55.870Z,0.90
2018-09-01T10:10:09.503Z,0.90
2018-09-01T10:12:38.155Z,0.67
2018-09-01T10:15:06.540Z,0.90
2018-09-01T10:17:58.142Z,0.80
2018-09-01T10:20:30.128Z,0.90
2018-09-01T10:22:58.377Z,0.70
2018-09-01T10:25:27.672Z,0.83
2018-09-01T10:28:00.352Z,0.80
2018-09-01T10:30:29.411Z,0.90
2018-09-01T10:32:57.847Z,0.60
2018-09-01T10:35:26.031Z,0.70
2018-09-01T10:37:54.963Z,0.70
2018-09-01T10:40:23.235Z,0.70
2018-09-01T10:42:51.578Z,0.77
2018-09-01T10:45:19.955Z,0.83
2018-09-01T10:47:49.037Z,0.70
2018-09-01T10:50:17.418Z,0.80
2018-09-01T10:52:45.846Z,0.87
2018-09-01T10:55:35.639Z,0.60
2018-09-01T10:58:04.120Z,0.77
2018-09-01T11:00:33.955Z,0.70
2018-09-01T11:03:04.605Z,0.60
2018-09-01T11:05:34.931Z,0.90
2018-09-01T11:08:03.031Z,0.70
2018-09-01T11:10:31.155Z,0.60
2018-09-01T11:12:59.681Z,0.77
2018-09-01T11:15:27.983Z,0.70
2018-09-01T11:17:56.198Z,0.83
2018-09-01T11:20:24.355Z,0.60
2018-09-01T11:22:53.403Z,1.10
2018-09-01T11:25:21.564Z,0.60
2018-09-01T11:27:49.740Z,1.00
2018-09-01T11:30:17.969Z,0.73
2018-09-01T11:32:46.158Z,0.80
2018-09-01T11:35:14.322Z,0.60
2018-09-01T11:37:42.564Z,0.87
2018-09-01T11:40:11.416Z,0.60
2018-09-01T11:42:39.730Z,0.60
2018-09-01T11:45:07.792Z,0.50
2018-09-01T11:47:35.922Z,0.80
2018-09-01T11:50:04.206Z,0.70
2018-09-01T11:52:32.381Z,0.70
2018-09-01T11:55:00.560Z,1.13
2018-09-01T11:57:28.675Z,1.23
2018-09-01T11:59:56.831Z,1.10
2018-09-01T12:02:25.004Z,1.10
2018-09-01T12:04:53.337Z,1.10
2018-09-01T12:07:21.500Z,0.80
2018-09-01T12:09:49.627Z,1.07
2018-09-01T12:12:17.774Z,1.07
2018-09-01T12:14:45.938Z,1.03
2018-09-01T12:17:14.142Z,1.33
2018-09-01T12:19:42.267Z,0.93
2018-09-01T12:22:10.426Z,0.43
2018-09-01T12:24:38.542Z,0.53
2018-09-01T12:27:06.688Z,0.87
2018-09-01T12:29:34.887Z,0.83
2018-09-01T12:32:03.992Z,0.73
2018-09-01T12:34:32.647Z,0.93
2018-09-01T12:37:03.288Z,0.70
2018-09-01T12:39:31.588Z,0.63
2018-09-01T12:41:59.792Z,0.60
2018-09-01T12:44:27.985Z,0.50
2018-09-01T12:46:56.126Z,0.60
2018-09-01T12:49:24.312Z,0.77
2018-09-01T12:51:52.810Z,0.50
2018-09-01T12:54:20.955Z,0.70
2018-09-01T12:56:49.224Z,0.73
2018-09-01T12:59:17.434Z,0.50
2018-09-01T13:01:45.776Z,0.70
2018-09-01T13:04:13.966Z,0.70
2018-09-01T13:06:42.070Z,0.40
2018-09-01T13:09:10.174Z,0.53
2018-09-01T13:11:38.306Z,0.67
2018-09-01T13:14:06.474Z,0.43
2018-09-01T13:16:34.705Z,0.60
2018-09-01T13:19:02.891Z,0.50
2018-09-01T13:21:31.063Z,0.60
2018-09-01T13:23:59.209Z,0.60
2018-09-01T13:26:27.346Z,0.80
2018-09-01T13:28:55.487Z,0.73
2018-09-01T13:31:23.730Z,0.50
2018-09-01T13:33:51.862Z,0.50
2018-09-01T13:36:20.014Z,0.60
2018-09-01T13:38:48.291Z,0.60
2018-09-01T13:41:19.124Z,0.80
2018-09-01T13:43:47.222Z,0.60
2018-09-01T13:46:15.391Z,0.60
2018-09-01T13:48:43.537Z,0.63
2018-09-01T13:51:11.715Z,0.63
2018-09-01T13:53:39.846Z,0.60
2018-09-01T13:56:07.924Z,0.60
2018-09-01T13:58:36.014Z,0.90
2018-09-01T14:01:04.234Z,0.80
2018-09-01T14:03:32.334Z,0.70
2018-09-01T14:06:00.419Z,0.90
2018-09-01T14:08:28.574Z,0.67
2018-09-01T14:10:56.760Z,0.60
2018-09-01T14:13:24.939Z,0.80
2018-09-01T14:15:53.074Z,0.57
2018-09-01T14:18:21.246Z,0.87
2018-09-01T14:20:49.420Z,1.03
2018-09-01T14:23:17.578Z,0.77
2018-09-01T14:25:45.706Z,0.90
2018-09-01T14:28:14.026Z,0.80
2018-09-01T14:30:42.247Z,0.90
2018-09-01T14:33:10.615Z,0.80
2018-09-01T14:35:38.979Z,0.70
2018-09-01T14:38:07.118Z,0.90
2018-09-01T14:40:35.338Z,0.70
2018-09-01T14:43:03.474Z,0.90
2018-09-01T14:45:31.684Z,1.00
2018-09-01T14:47:59.861Z,0.93
2018-09-01T14:50:28.354Z,0.80
2018-09-01T14:52:56.519Z,0.90
2018-09-01T14:55:24.732Z,1.30
2018-09-01T14:57:52.845Z,0.90
2018-09-01T15:00:21.050Z,0.87
2018-09-01T15:02:50.816Z,0.93
2018-09-01T15:05:18.968Z,0.97
2018-09-01T15:07:47.077Z,1.00
2018-09-01T15:10:15.942Z,0.90
2018-09-01T15:15:23.063Z,1.20
2018-09-01T15:17:51.185Z,1.20
2018-09-01T15:20:19.274Z,0.77
2018-09-01T15:22:47.479Z,1.30
2018-09-01T15:25:15.613Z,1.10
2018-09-01T15:27:43.686Z,0.97
2018-09-01T15:30:11.831Z,1.00
2018-09-01T15:32:40.158Z,1.13
2018-09-01T15:35:08.333Z,1.20
2018-09-01T15:37:36.446Z,1.30
2018-09-01T15:40:04.634Z,1.07
2018-09-01T15:42:37.005Z,0.90
2018-09-01T15:45:13.725Z,1.10
2018-09-01T15:47:42.845Z,1.00
2018-09-01T15:50:11.012Z,1.10
2018-09-01T15:52:39.137Z,1.40
2018-09-01T15:55:07.763Z,1.50
2018-09-01T15:57:35.945Z,2.23
2018-09-01T16:00:04.102Z,2.20
2018-09-01T16:02:32.280Z,1.70
2018-09-01T16:05:00.390Z,2.10
2018-09-01T16:07:28.486Z,1.50
2018-09-01T16:09:56.664Z,1.80
2018-09-01T16:12:24.909Z,1.43
2018-09-01T16:14:53.102Z,1.60
2018-09-01T16:17:21.237Z,1.43
2018-09-01T16:19:49.360Z,1.33
2018-09-01T16:22:17.490Z,1.40
2018-09-01T16:24:45.661Z,2.83
2018-09-01T16:27:13.839Z,31.17
2018-09-01T16:29:42.088Z,14.30
2018-09-01T16:32:10.207Z,11.50
2018-09-01T16:34:38.550Z,7.63
2018-09-01T16:37:06.562Z,7.97
2018-09-01T16:39:34.770Z,8.60
2018-09-01T16:42:02.864Z,4.53
2018-09-01T16:44:31.008Z,4.80
2018-09-01T16:46:59.170Z,3.43
2018-09-01T16:49:27.306Z,5.00
2018-09-01T16:51:55.705Z,27.97
2018-09-01T16:54:23.978Z,11.37
2018-09-01T16:56:52.090Z,6.80
2018-09-01T16:59:20.218Z,6.93
2018-09-01T17:01:48.331Z,3.57
2018-09-01T17:04:16.438Z,3.43
2018-09-01T17:06:44.604Z,3.63
2018-09-01T17:09:12.959Z,3.07
2018-09-01T17:11:41.728Z,3.23
2018-09-01T17:14:10.109Z,2.30
2018-09-01T17:16:38.256Z,1.90
2018-09-01T17:19:06.370Z,1.70
2018-09-01T17:21:34.489Z,1.90
2018-09-01T17:24:02.627Z,1.60
2018-09-01T17:26:30.974Z,1.37
2018-09-01T17:28:59.133Z,1.63
2018-09-01T17:31:27.314Z,1.40
2018-09-01T17:33:55.519Z,1.20
2018-09-01T17:36:23.678Z,1.30
2018-09-01T17:38:51.786Z,1.00
2018-09-01T17:41:19.947Z,2.00
2018-09-01T17:43:48.463Z,2.97
2018-09-01T17:46:16.784Z,3.73
2018-09-01T17:48:45.909Z,6.03
2018-09-01T17:51:14.233Z,7.60
2018-09-01T17:53:42.368Z,6.03
2018-09-01T17:58:49.964Z,5.60
2018-09-01T18:01:19.584Z,4.53
2018-09-01T18:03:47.882Z,4.03
2018-09-01T18:06:16.091Z,4.87
2018-09-01T18:08:44.414Z,3.60
2018-09-01T18:11:12.545Z,4.13
2018-09-01T18:13:40.969Z,3.83
2018-09-01T18:16:09.170Z,4.93
2018-09-01T18:18:37.272Z,3.90
2018-09-01T18:21:05.413Z,4.13
2018-09-01T18:23:33.680Z,3.50
2018-09-01T18:26:01.699Z,3.27
2018-09-01T18:28:29.819Z,3.23
2018-09-01T18:30:57.951Z,3.03
2018-09-01T18:33:26.055Z,3.30
2018-09-01T18:35:54.528Z,3.30
2018-09-01T18:38:22.664Z,2.97
2018-09-01T18:40:50.854Z,2.97
2018-09-01T18:43:19.823Z,3.53
2018-09-01T18:45:48.071Z,3.30
2018-09-01T18:48:16.296Z,3.03
2018-09-01T18:50:44.442Z,2.80
2018-09-01T18:53:12.635Z,3.00
2018-09-01T18:55:40.767Z,2.67
2018-09-01T18:58:08.926Z,3.07
2018-09-01T19:00:37.096Z,3.10
2018-09-01T19:03:05.327Z,2.60
2018-09-01T19:05:33.551Z,2.73
2018-09-01T19:08:01.845Z,2.80
2018-09-01T19:10:30.067Z,2.87
2018-09-01T19:12:58.263Z,2.60
2018-09-01T19:15:26.492Z,2.27
2018-09-01T19:17:54.646Z,2.37
2018-09-01T19:20:22.746Z,2.83
2018-09-01T19:22:50.785Z,2.50
2018-09-01T19:25:18.977Z,2.53
2018-09-01T19:27:48.427Z,2.17
2018-09-01T19:30:16.571Z,2.60
2018-09-01T19:32:45.480Z,2.87
2018-09-01T19:35:13.667Z,2.47
2018-09-01T19:37:44.659Z,2.30
2018-09-01T19:40:12.812Z,2.87
2018-09-01T19:42:40.948Z,3.00
2018-09-01T19:45:09.226Z,3.00
2018-09-01T19:47:37.451Z,2.50
2018-09-01T19:50:05.554Z,3.20
2018-09-01T19:52:33.686Z,3.73
2018-09-01T19:55:02.554Z,4.17
2018-09-01T19:57:30.855Z,4.93
2018-09-01T19:59:58.964Z,5.70
2018-09-01T20:02:27.156Z,5.17
2018-09-01T20:04:55.855Z,6.23
2018-09-01T20:07:24.134Z,5.87
2018-09-01T20:09:53.104Z,5.90
2018-09-01T20:12:21.223Z,5.40
2018-09-01T20:14:49.342Z,5.23
2018-09-01T20:17:17.433Z,5.37
2018-09-01T20:19:45.602Z,5.13
2018-09-01T20:22:13.848Z,4.80
2018-09-01T20:24:42.038Z,5.50
2018-09-01T20:27:10.128Z,4.50
2018-09-01T20:29:38.306Z,4.97
2018-09-01T20:32:06.582Z,4.73
2018-09-01T20:34:37.344Z,4.77
2018-09-01T20:37:06.315Z,5.57
2018-09-01T20:39:34.588Z,5.50
2018-09-01T20:42:02.802Z,5.13
2018-09-01T20:44:31.452Z,5.00
2018-09-01T20:46:59.939Z,5.27
2018-09-01T20:49:28.069Z,4.90
2018-09-01T20:51:56.242Z,4.70
2018-09-01T20:54:24.354Z,4.53
2018-09-01T20:56:52.477Z,4.50
2018-09-01T20:59:20.574Z,4.60
2018-09-01T21:01:48.727Z,3.97
2018-09-01T21:04:16.917Z,3.73
2018-09-01T21:06:45.059Z,3.83
2018-09-01T21:09:13.239Z,4.37
2018-09-01T21:11:41.982Z,4.00
2018-09-01T21:14:10.667Z,3.60
2018-09-01T21:16:38.952Z,4.30
2018-09-01T21:19:07.158Z,4.50
2018-09-01T21:21:35.274Z,4.03
2018-09-01T21:24:03.914Z,4.17
2018-09-01T21:26:32.070Z,4.77
2018-09-01T21:29:00.138Z,4.13
2018-09-01T21:31:28.267Z,3.73
2018-09-01T21:33:56.882Z,3.97
2018-09-01T21:36:25.412Z,3.87
2018-09-01T21:38:53.539Z,3.13
2018-09-01T21:41:21.750Z,3.73
2018-09-01T21:43:50.189Z,3.50
2018-09-01T21:46:18.303Z,3.20
2018-09-01T21:48:46.406Z,3.83
2018-09-01T21:51:14.568Z,3.07
2018-09-01T21:53:42.617Z,3.77
2018-09-01T21:56:10.834Z,3.37
2018-09-01T21:58:38.966Z,3.60
2018-09-01T22:01:12.974Z,2.83
2018-09-01T22:03:48.170Z,3.20
2018-09-01T22:06:17.419Z,3.10
2018-09-01T22:08:45.592Z,2.90
2018-09-01T22:11:13.683Z,2.90
2018-09-01T22:13:42.079Z,2.90
2018-09-01T22:16:10.268Z,3.03
2018-09-01T22:18:38.806Z,3.10
2018-09-01T22:21:07.511Z,2.90
2018-09-01T22:23:35.998Z,3.20
2018-09-01T22:26:04.235Z,2.53
2018-09-01T22:28:32.461Z,2.60
2018-09-01T22:31:00.547Z,2.73
2018-09-01T22:33:29.261Z,2.77
2018-09-01T22:35:57.453Z,2.47
2018-09-01T22:38:25.579Z,2.73
2018-09-01T22:40:54.191Z,2.43
2018-09-01T22:43:22.449Z,2.43
2018-09-01T22:45:50.564Z,2.63
2018-09-01T22:48:18.763Z,2.57
2018-09-01T22:50:46.958Z,2.27
2018-09-01T22:53:15.103Z,2.30
2018-09-01T22:55:43.281Z,2.50
2018-09-01T22:58:11.455Z,2.43
2018-09-01T23:00:39.619Z,2.40
2018-09-01T23:03:07.743Z,2.63
2018-09-01T23:05:35.890Z,2.80
2018-09-01T23:08:04.027Z,2.47
2018-09-01T23:10:32.178Z,2.40
2018-09-01T23:13:00.401Z,2.20
2018-09-01T23:15:28.520Z,2.33
2018-09-01T23:17:56.661Z,2.67
2018-09-01T23:20:25.369Z,2.63
2018-09-01T23:22:53.552Z,2.70
2018-09-01T23:25:21.723Z,2.30
2018-09-01T23:27:50.673Z,2.73
2018-09-01T23:30:18.864Z,2.47
2018-09-01T23:32:47.559Z,2.60
2018-09-01T23:35:15.691Z,2.50
2018-09-01T23:37:43.803Z,2.57
2018-09-01T23:40:11.887Z,1.90
2018-09-01T23:42:40.043Z,2.30
2018-09-01T23:45:08.195Z,2.17
2018-09-01T23:47:36.287Z,2.03
2018-09-01T23:50:04.842Z,2.20
2018-09-01T23:52:33.032Z,2.03
2018-09-01T23:55:01.290Z,2.10
2018-09-01T23:57:29.483Z,2.00
2018-09-01T23:59:57.651Z,2.00
